Sun, Louisiana
Current Conditions -  °F | °C
As of 5:53 PM on Sunday 23 Nov 2014 (Local Time) from KASD Reporting Station
Clear Clear  
Wind Chill: 67°   Ceiling: Unl
Heat Index: 67°   Visibility: 10mi
Dew Point: 57°   Wind: 6mph
Humidity: 70%   Direction: 190°S
Pressure: 29.67"   Gusts: NA
Location:  30.65°N, 89.89°W
Report Text: KASD 232353Z AUTO 19005KT 10SM CLR 19/14 A2967 RMK AO2 SLP047 T01940139 10233 20178 53014
Loading
Personal Weather Stations






























Interactive Weather Map New forecast layout! Learn more

10-Day Weather Forecast

Advertisements
Track Severe Weather on mobile